x

Halibut Bank (46146) Wave Buoy

1:00 - Sun 19th Apr 2015 All times are PDT. -7 hours from GMT.

  • Sig Wave height 1.0ft
  • Peak Period 3s
  • Wind
    11mph, 13mph gusts
  • Sea Temp 51°f
  • Air Temp 52°f
  • Sea Pressure 1024.2mb
  • Halibut Bank
  • Halibut Bank

More Historic Weather Station data

Upgrade to MSW Pro to gain access to the past 30 days of data for over 8000 Wavebouys and Weather Stations around the globe.

Join Pro

Comparision Forecast

View Surf forecast
   
dim. 04/19 1:00 1ft 3s 11 13 mph 1024.2mb 51f 52f
12:00 1ft 2s 13 16 mph 1023.9mb 51f 53f
sam. 04/18 11:00 1.3ft 3s 11 13 mph 1024.1mb 51f 54f
10:00 1.3ft 3s 16 18 mph 1024.1mb 51f 54f
9:00 1.3ft 3s 16 18 mph 1024.3mb 51f 54f
8:00 1.3ft 3s 16 18 mph 1024.3mb 51f 54f
7:00 1.3ft 3s 16 18 mph 1024.6mb 51f 53f
6:00 1ft 3s 13 18 mph 1025.4mb 52f 53f
5:00 1.3ft 3s 13
mph
1026.1mb 52f 53f
4:00 1.3ft 3s 13 16 mph 1026.6mb 51f 52f
3:00 1.3ft 3s 11 13 mph 1027.5mb 52f 52f
2:00 1.6ft 4s 13
mph
1028.3mb 51f 51f
1:00 2ft 4s 16 18 mph 1028.9mb 51f 50f
12:00 2ft 4s 16 18 mph 1029.5mb 51f 49f
11:00 1.6ft 4s 16 18 mph 1029.9mb 51f 49f
10:00 1.6ft 3s 13 16 mph 1030mb 51f 49f
9:00 1.6ft 4s 16 18 mph 1029.9mb 50f 49f
8:00 2ft 4s 11 13 mph 1029.6mb 51f 49f
7:00 2ft 4s 13 16 mph 1029mb 51f 49f
6:00 2ft 4s 13 16 mph 1028.6mb 51f 49f
5:00 2.5ft 4s 9
mph
1028.6mb 51f 49f
4:00 2.5ft 4s 11 16 mph 1028mb 51f 49f
3:00 2.5ft 4s 18 20 mph 1027.6mb 51f 51f
2:00 2.5ft 4s 20 25 mph 1027.2mb 52f 51f
1:00 2.5ft 4s 18 22 mph 1027.2mb 52f 52f
12:00 2.5ft 4s 20 25 mph 1026.7mb 53f 52f
ven. 04/17 11:00 2.5ft 4s 25 29 mph 1026.4mb 53f 53f
10:00 2.5ft 4s 18 22 mph 1026.2mb 53f 54f
9:00 2.5ft 4s 20 25 mph 1025.4mb 53f 54f
8:00 2.5ft 4s 18 22 mph 1024.7mb 53f 54f
7:00 2ft 4s 20 22 mph 1024.4mb 53f 55f
6:00 2.5ft 4s 16 18 mph 1024.6mb 53f 55f
5:00 2ft 4s 13 18 mph 1024.5mb 53f 55f
4:00 2.5ft 4s 18 20 mph 1024.4mb 53f 56f
3:00 2.5ft 4s 22 27 mph 1024.2mb 53f 56f
2:00 2ft 3s 18 22 mph 1024.6mb 53f 55f
1:00 1.3ft 3s 20 22 mph 1024.5mb 53f 54f
12:00 0.3ft 6s 13 16 mph 1024.9mb 54f 53f
11:00 0.3ft 3s 7
mph
1025.2mb 54f 52f
10:00 0.3ft 4s 4
mph
1025.1mb 53f 53f
9:00 0.3ft 2s 2 4 mph 1024.6mb 52f 52f
8:00 0.3ft 4s 4
mph
1024.6mb 52f 52f
7:00 0.3ft 2s 2 4 mph 1024mb 52f 51f
6:00 0.3ft 2s 2 4 mph 1023.4mb 52f 51f
5:00 0.3ft 2s 9 11 mph 1023.9mb 53f 51f
4:00 0.3ft 2s 2 4 mph 1023.3mb 52f 51f
3:00 0.3ft 2s 4 7 mph 1023.5mb 52f 51f
2:00 0.3ft 2s 4 7 mph 1023.8mb 52f 52f
1:00 0.3ft 2s 7 9 mph 1023.9mb 52f 52f
12:00 0.7ft 2s 7 9 mph 1024.1mb 52f 52f
jeu. 04/16 11:00 0.7ft 2s 11
mph
1024.1mb 52f 52f
10:00 0.7ft 2s 11 13 mph 1024.1mb 52f 53f
9:00 1ft 2s 13
mph
1024.1mb 52f 54f
8:00 1ft 2s 13 16 mph 1023.7mb 52f 54f
7:00 1ft 2s 13 16 mph 1023.9mb 53f 54f
6:00 0.3ft 2s 13 16 mph 1024.6mb 53f 54f
5:00 0.3ft 6s 9 11 mph 1025.3mb 53f 54f
4:00 0.3ft 3s 7 9 mph 1026.1mb 55f 53f
3:00 0.3ft 3s 4
mph
1027.1mb 55f 52f
2:00 0.3ft 5s  -  2 mph 1028mb 54f 52f
1:00 0.7ft 3s 2 4 mph 1028.7mb 53f 51f
12:00 0.7ft 2s 4 7 mph 1029.4mb 52f 50f
11:00 0.7ft 2s 9
mph
1030.2mb 52f 49f
10:00 1ft 2s 9 11 mph 1030.1mb 52f 49f
9:00 0.7ft 2s 11 13 mph 1030.1mb 51f 49f
8:00 0.7ft 4s 11 13 mph 1030.5mb 51f 49f
7:00 0.3ft 2s 9
mph
1030.3mb 51f 49f
6:00 0.3ft 2s 7
mph
1030.4mb 51f 49f
5:00 0.3ft 2s 9
mph
1030.3mb 51f 49f
4:00 0.7ft 2s 11 13 mph 1030.5mb 51f 49f
3:00 0.7ft 2s 9
mph
1030.6mb 51f 49f
2:00 0.3ft 2s 9 11 mph 1030.9mb 51f 49f
1:00 0.3ft 2s 4 7 mph 1031.5mb 51f 49f
12:00 0.3ft 3s 9
mph
1032mb 51f 50f
mer. 04/15 11:00 0.3ft 6s 7 9 mph 1032.2mb 51f 51f
10:00 0.3ft 6s 7
mph
1032.6mb 51f 51f
9:00 0.3ft 4s 4
mph
1032.6mb 52f 51f
8:00 0.3ft 2s 4
mph
1032.3mb 52f 51f
7:00 0.7ft 3s 4
mph
1032.4mb 52f 51f
6:00 0.3ft 6s 4
mph
1032.5mb 52f 51f
5:00 0.7ft 2s 7
mph
1033mb 52f 50f
4:00 0.3ft 2s 9
mph
1033.2mb 52f 50f
3:00 0.3ft 2s 9
mph
1033.6mb 52f 50f
2:00 0.3ft 2s 7 9 mph 1033.7mb 52f 49f
1:00 0.7ft 2s 11 13 mph 1033.9mb 51f 49f
12:00 0.7ft 2s 9 11 mph 1034.2mb 51f 48f
11:00 0.7ft 2s 11 13 mph 1034.1mb 51f 47f
10:00 1ft 3s 9 11 mph 1033.9mb 51f 47f